Carmelita Airport


Codes: MGCR/CMM
Name: Carmelita Airport
City: Carmelita
Country: Guatemala
Elevation: 753 ft.

Photos at Carmelita Airport


   Photos courtesy of SpottingLog. You can add your own sightings and photos by signing up for a free trial today.



No photos found.

Weather at Carmelita Airport


Time (UTC)DescriptionTempratureWindCloud coverageVisibilityPressureHumidity
21-Feb-2024 03:00Clear Sky20°C0 mph, E0%10000m1022hPa61%
21-Feb-2024 06:00Clear Sky18°C2 mph, SE0%10000m1022hPa69%
21-Feb-2024 09:00Clear Sky15°C2 mph, E0%10000m1022hPa80%
21-Feb-2024 12:00Clear Sky14°C2 mph, E0%10000m1023hPa86%
21-Feb-2024 15:00Clear Sky22°C4 mph, E0%10000m1024hPa64%
21-Feb-2024 18:00Clear Sky28°C2 mph, E0%10000m1022hPa38%
21-Feb-2024 21:00Clear Sky29°C2 mph, E0%10000m1018hPa32%
22-Feb-2024 00:00Clear Sky22°C2 mph, NE0%10000m1018hPa60%
22-Feb-2024 03:00Clear Sky19°C4 mph, SE5%10000m1020hPa71%
22-Feb-2024 06:00Clear Sky17°C4 mph, E3%10000m1020hPa81%
22-Feb-2024 09:00Clear Sky15°C4 mph, SE0%10000m1018hPa88%
22-Feb-2024 12:00Clear Sky14°C4 mph, SE0%10000m1018hPa91%
22-Feb-2024 15:00Clear Sky22°C4 mph, SE0%10000m1018hPa57%
22-Feb-2024 18:00Clear Sky28°C4 mph, SE0%10000m1015hPa32%
22-Feb-2024 21:00Clear Sky31°C4 mph, SE0%10000m1011hPa25%
23-Feb-2024 00:00Clear Sky23°C4 mph, E0%10000m1011hPa54%
23-Feb-2024 03:00Clear Sky20°C7 mph, E0%10000m1014hPa71%
23-Feb-2024 06:00Clear Sky17°C4 mph, SE0%10000m1014hPa81%
23-Feb-2024 09:00Clear Sky15°C4 mph, SE0%10000m1011hPa90%
23-Feb-2024 12:00Clear Sky14°C2 mph, E0%10000m1012hPa94%
23-Feb-2024 15:00Clear Sky23°C2 mph, SE0%10000m1014hPa54%
23-Feb-2024 18:00Clear Sky31°C2 mph, SW2%10000m1012hPa29%
23-Feb-2024 21:00Clear Sky33°C2 mph, NW4%10000m1009hPa24%
24-Feb-2024 00:00Clear Sky24°C0 mph, NW2%10000m1010hPa53%
24-Feb-2024 03:00Clear Sky20°C2 mph, NE0%10000m1015hPa67%
24-Feb-2024 06:00Clear Sky18°C0 mph, SE0%10000m1015hPa84%
24-Feb-2024 09:00Clear Sky16°C2 mph, S2%10000m1015hPa92%
24-Feb-2024 12:00Clear Sky15°C2 mph, SW2%10000m1017hPa95%
24-Feb-2024 15:00Clear Sky22°C4 mph, W5%10000m1019hPa64%
24-Feb-2024 18:00Clear Sky29°C4 mph, NW5%10000m1017hPa40%
24-Feb-2024 21:00Clear Sky31°C4 mph, NW5%10000m1014hPa33%
25-Feb-2024 00:00Clear Sky24°C2 mph, NW3%10000m1015hPa60%
25-Feb-2024 03:00Few Clouds20°C2 mph, NE11%10000m1019hPa80%
25-Feb-2024 06:00Clear Sky18°C2 mph, N6%10000m1019hPa87%
25-Feb-2024 09:00Clear Sky17°C0 mph, NE3%10000m1018hPa96%
25-Feb-2024 12:00Clear Sky16°C2 mph, SE7%10000m1018hPa99%
25-Feb-2024 15:00Scattered Clouds24°C4 mph, SE48%10000m1020hPa65%
25-Feb-2024 18:00Broken Clouds29°C4 mph, SE62%10000m1017hPa44%
25-Feb-2024 21:00Scattered Clouds32°C4 mph, E32%10000m1013hPa33%
26-Feb-2024 00:00Scattered Clouds25°C7 mph, E30%10000m1015hPa59%